الصفحة الرئيسية
METAR-TAF:

METAR-TAF

مطار :

مطار ميتشيل رومان الدولي

كورور, Babeldaob, بالاو

دائرة عرض: 07-22N, خط طول: 134-32E, ارتفاع: 54 متر

مراقبة الطقس الحالي

تاريخ ووقت الإصدار 1ساعة و 9 دقيقة قبل الساعة 02:50UTC
ريح 8 عقدة من الشرق
درجة الحرارة 30°درجة مئوية
الرطوبة 75%
ضغط 1012 hPa
الرؤية: 24.1 كم
غيوم متفرقة على ارتفاع 1600 قدم
غيوم مفككة على ارتفاع 12000 قدم
غيوم مفككة على ارتفاع 30000 قدم

METAR: PTRO 270250Z 10008KT 15SM SCT016 BKN120 BKN300 30/25 A2989

زمن: 12:59 (03:59 UTC)

توقعات

تاريخ ووقت الإصدار 4ساعات و 32 دقيقة قبل الساعة 23:27UTC
التوقعات صالحة من27 الساعة 00 UTC إلى 27 الساعة 24 UTC
ريح 7 عقدة من الشمال الشرقي
الرؤية: 10 كم
غيوم متفرقة على ارتفاع 1500 قدم
غيوم مفككة على ارتفاع 12000 قدم
زخات في الجوار
مؤقت
من 27 الساعة 00 UTC إلى 27 الساعة 04 UTC
الرؤية: 8.0 كم
غيوم مفككة على ارتفاع 1500 قدم
ملبد بالغيوم على ارتفاع 12000 قدم
زخات من المطر

TAF: PTRO 262327Z 2700/2724 05007KT P6SM VCSH SCT015 BKN120 TEMPO 2700/2704 5SM SHRA BKN015 OVC120

أرصاد الطقس والتوقعات من أكثر من 4000 مطار (تقارير الطقس للمطار METAR والتنبؤ بالطقس بالمطارTAF).

المحطات المتاحة هي النقط الصفراء والحمراء على الخريطة.

حرك المؤشر فوق النقطة لمعرفة اسم المحطة.

ثم انقر لمعرفة أرصاد وتوقعات الطقس.

لتغيير الخارطة: اضغط على الأزرار الخضراء مع رمز الصليب الأسود للتكبير. على الزر الأخضر مع شرطة للتصغير، أو على الأسهم الخضراء للخرائط المجاورة.


METAR-TAF: